CheckWX is a tool to help pilots better visualize weather data.  It is not intended as a substitute for an official pre-flight weather briefing.

13:22:27 UTC

KHNB TAF
Huntingburg Airport
Huntingburg, Indiana, USA
KHNB 211120Z 2112/2212 15004KT P6SM BKN120 FM211400 21010KT P6SM FEW060 FM220000 17006KT P6SM FEW200

Sep-21@
12:00 UTC

Sep-21 @ 12:00 UTC

Sep-21@
14:00 UTC

Sep-21 @ 14:00 UTC

KHNB 211120Z 2112/2212 15004KT P6SM BKN120
Wind
  • 150° at 4 KTS
Cloud Levels
  • Broken at 12,000' AGL

Sep-21@
14:00 UTC

Sep-21 @ 14:00 UTC

Sep-22@
00:00 UTC

Sep-22 @ 00:00 UTC

FM211400 21010KT P6SM FEW060

From

From Standard forecast or significant change

Wind
  • 210° at 10 KTS
Cloud Levels
  • Few at 6,000' AGL

Sep-22@
00:00 UTC

Sep-22 @ 00:00 UTC

Sep-22@
12:00 UTC

Sep-22 @ 12:00 UTC

FM220000 17006KT P6SM FEW200

From

From Standard forecast or significant change

Wind
  • 170° at 6 KTS
Cloud Levels
  • Few at 20,000' AGL